sensor_id;sensor_type;location;lat;lon;timestamp;pressure;altitude;pressure_sealevel;temperature;humidity
64908;BME280;51412;52.236;5.188;2022-09-03T00:00:22;101117.69;;;19.30;45.00
64908;BME280;51412;52.236;5.188;2022-09-03T00:02:56;101136.66;;;19.43;45.82
64908;BME280;51412;52.236;5.188;2022-09-03T00:05:31;101129.50;;;19.36;45.34
64908;BME280;51412;52.236;5.188;2022-09-03T00:08:03;101132.13;;;19.40;45.39
64908;BME280;51412;52.236;5.188;2022-09-03T00:10:37;101130.25;;;19.37;45.45
64908;BME280;51412;52.236;5.188;2022-09-03T00:13:13;101127.22;;;19.34;45.41
64908;BME280;51412;52.236;5.188;2022-09-03T00:15:41;101122.66;;;19.31;45.59
64908;BME280;51412;52.236;5.188;2022-09-03T00:18:11;101123.41;;;19.32;45.37
64908;BME280;51412;52.236;5.188;2022-09-03T00:20:41;101114.72;;;19.24;46.05
64908;BME280;51412;52.236;5.188;2022-09-03T00:23:11;101130.00;;;19.31;45.55
64908;BME280;51412;52.236;5.188;2022-09-03T00:25:43;101108.28;;;19.18;45.83
64908;BME280;51412;52.236;5.188;2022-09-03T00:28:13;101125.34;;;19.31;46.07
64908;BME280;51412;52.236;5.188;2022-09-03T00:30:45;101103.94;;;19.24;46.75
64908;BME280;51412;52.236;5.188;2022-09-03T00:33:17;101119.53;;;19.33;46.21
64908;BME280;51412;52.236;5.188;2022-09-03T00:35:50;101119.97;;;19.31;45.98
64908;BME280;51412;52.236;5.188;2022-09-03T00:38:19;101113.63;;;19.22;46.21
64908;BME280;51412;52.236;5.188;2022-09-03T00:40:55;101116.22;;;19.25;46.00
64908;BME280;51412;52.236;5.188;2022-09-03T00:43:33;101113.63;;;19.22;45.96
64908;BME280;51412;52.236;5.188;2022-09-03T00:46:08;101117.47;;;19.21;46.69
64908;BME280;51412;52.236;5.188;2022-09-03T00:48:50;101114.44;;;19.18;46.63
64908;BME280;51412;52.236;5.188;2022-09-03T00:51:24;101108.72;;;19.16;47.25
64908;BME280;51412;52.236;5.188;2022-09-03T00:53:59;101113.41;;;19.12;46.31
64908;BME280;51412;52.236;5.188;2022-09-03T00:56:35;101106.97;;;19.06;46.35
64908;BME280;51412;52.236;5.188;2022-09-03T00:59:13;101106.91;;;19.10;47.14
64908;BME280;51412;52.236;5.188;2022-09-03T01:01:46;101102.44;;;19.03;46.81
64908;BME280;51412;52.236;5.188;2022-09-03T01:04:27;101103.53;;;19.06;46.80
64908;BME280;51412;52.236;5.188;2022-09-03T01:07:03;101104.38;;;19.02;46.57
64908;BME280;51412;52.236;5.188;2022-09-03T01:09:49;101096.41;;;18.95;47.48
64908;BME280;51412;52.236;5.188;2022-09-03T01:12:28;101110.97;;;18.98;46.90
64908;BME280;51412;52.236;5.188;2022-09-03T01:15:04;101103.31;;;18.96;46.78
64908;BME280;51412;52.236;5.188;2022-09-03T01:17:41;101102.63;;;18.92;46.98
64908;BME280;51412;52.236;5.188;2022-09-03T01:20:22;101087.81;;;18.80;47.02
64908;BME280;51412;52.236;5.188;2022-09-03T01:26:01;101113.50;;;18.85;47.62
64908;BME280;51412;52.236;5.188;2022-09-03T01:28:53;101112.75;;;18.84;48.20
64908;BME280;51412;52.236;5.188;2022-09-03T01:31:30;101123.59;;;18.81;47.96
64908;BME280;51412;52.236;5.188;2022-09-03T01:34:09;101122.00;;;18.83;47.14
64908;BME280;51412;52.236;5.188;2022-09-03T01:36:45;101107.50;;;18.77;48.12
64908;BME280;51412;52.236;5.188;2022-09-03T01:39:23;101115.84;;;18.83;47.48
64908;BME280;51412;52.236;5.188;2022-09-03T01:42:00;101113.56;;;18.81;47.93
64908;BME280;51412;52.236;5.188;2022-09-03T01:47:38;101124.94;;;18.69;47.81
64908;BME280;51412;52.236;5.188;2022-09-03T01:50:25;101112.22;;;18.69;49.35
64908;BME280;51412;52.236;5.188;2022-09-03T01:53:03;101119.00;;;18.78;48.65
64908;BME280;51412;52.236;5.188;2022-09-03T01:55:33;101120.91;;;18.81;48.04
64908;BME280;51412;52.236;5.188;2022-09-03T01:58:07;101113.28;;;18.76;48.44
64908;BME280;51412;52.236;5.188;2022-09-03T02:00:40;101114.00;;;18.80;48.42
64908;BME280;51412;52.236;5.188;2022-09-03T02:03:10;101112.13;;;18.77;48.11
64908;BME280;51412;52.236;5.188;2022-09-03T02:05:37;101120.81;;;18.84;47.94
64908;BME280;51412;52.236;5.188;2022-09-03T02:08:05;101122.34;;;18.85;47.42
64908;BME280;51412;52.236;5.188;2022-09-03T02:10:38;101122.41;;;18.82;47.13
64908;BME280;51412;52.236;5.188;2022-09-03T02:13:09;101119.38;;;18.80;47.57
64908;BME280;51412;52.236;5.188;2022-09-03T02:15:37;101114.41;;;18.78;47.77
64908;BME280;51412;52.236;5.188;2022-09-03T02:18:09;101110.59;;;18.76;47.36
64908;BME280;51412;52.236;5.188;2022-09-03T02:20:38;101108.44;;;18.67;47.26
64908;BME280;51412;52.236;5.188;2022-09-03T02:23:05;101111.81;;;18.71;48.57
64908;BME280;51412;52.236;5.188;2022-09-03T02:25:35;101111.44;;;18.73;48.55
64908;BME280;51412;52.236;5.188;2022-09-03T02:28:04;101105.31;;;18.68;47.99
64908;BME280;51412;52.236;5.188;2022-09-03T02:30:30;101112.31;;;18.66;48.51
64908;BME280;51412;52.236;5.188;2022-09-03T02:32:57;101111.97;;;18.64;48.57
64908;BME280;51412;52.236;5.188;2022-09-03T02:35:25;101104.34;;;18.59;48.46
64908;BME280;51412;52.236;5.188;2022-09-03T02:37:52;101110.16;;;18.57;48.87
64908;BME280;51412;52.236;5.188;2022-09-03T02:40:18;101111.69;;;18.58;48.90
64908;BME280;51412;52.236;5.188;2022-09-03T02:42:45;101093.00;;;18.47;48.57
64908;BME280;51412;52.236;5.188;2022-09-03T02:45:20;101107.91;;;18.52;48.49
64908;BME280;51412;52.236;5.188;2022-09-03T02:47:53;101109.50;;;18.49;48.07
64908;BME280;51412;52.236;5.188;2022-09-03T02:50:20;101109.56;;;18.46;48.10
64908;BME280;51412;52.236;5.188;2022-09-03T02:52:48;101102.72;;;18.41;49.03
64908;BME280;51412;52.236;5.188;2022-09-03T02:55:14;101100.44;;;18.40;48.76
64908;BME280;51412;52.236;5.188;2022-09-03T02:57:41;101098.13;;;18.42;48.68
64908;BME280;51412;52.236;5.188;2022-09-03T03:00:08;101105.00;;;18.43;48.48
64908;BME280;51412;52.236;5.188;2022-09-03T03:02:35;101099.31;;;18.37;48.68
64908;BME280;51412;52.236;5.188;2022-09-03T03:05:01;101081.03;;;18.28;48.62
64908;BME280;51412;52.236;5.188;2022-09-03T03:07:31;101099.03;;;18.31;48.58
64908;BME280;51412;52.236;5.188;2022-09-03T03:10:00;101099.88;;;18.28;48.92
64908;BME280;51412;52.236;5.188;2022-09-03T03:12:27;101089.19;;;18.21;49.81
64908;BME280;51412;52.236;5.188;2022-09-03T03:14:54;101096.88;;;18.23;49.26
64908;BME280;51412;52.236;5.188;2022-09-03T03:17:20;101078.56;;;18.14;49.44
64908;BME280;51412;52.236;5.188;2022-09-03T03:19:47;101093.41;;;18.22;49.56
64908;BME280;51412;52.236;5.188;2022-09-03T03:22:14;101085.75;;;18.21;49.25
64908;BME280;51412;52.236;5.188;2022-09-03T03:24:40;101092.31;;;18.20;48.86
64908;BME280;51412;52.236;5.188;2022-09-03T03:27:08;101089.28;;;18.17;48.78
64908;BME280;51412;52.236;5.188;2022-09-03T03:29:35;101087.78;;;18.13;48.96
64908;BME280;51412;52.236;5.188;2022-09-03T03:32:02;101081.66;;;18.12;49.04
64908;BME280;51412;52.236;5.188;2022-09-03T03:34:29;101092.44;;;18.12;49.44
64908;BME280;51412;52.236;5.188;2022-09-03T03:37:00;101091.69;;;18.12;49.06
64908;BME280;51412;52.236;5.188;2022-09-03T03:39:27;101090.09;;;18.14;49.00
64908;BME280;51412;52.236;5.188;2022-09-03T03:41:54;101080.91;;;18.12;49.58
64908;BME280;51412;52.236;5.188;2022-09-03T03:44:22;101087.03;;;18.12;48.99
64908;BME280;51412;52.236;5.188;2022-09-03T03:46:49;101085.47;;;18.15;48.89
64908;BME280;51412;52.236;5.188;2022-09-03T03:49:15;101092.38;;;18.16;49.26
64908;BME280;51412;52.236;5.188;2022-09-03T03:51:42;101080.56;;;18.10;48.78
64908;BME280;51412;52.236;5.188;2022-09-03T03:54:08;101093.84;;;18.21;48.82
64908;BME280;51412;52.236;5.188;2022-09-03T03:56:35;101101.84;;;18.24;49.36
64908;BME280;51412;52.236;5.188;2022-09-03T03:59:02;101102.28;;;18.23;48.99
64908;BME280;51412;52.236;5.188;2022-09-03T04:01:30;101092.00;;;18.14;49.45
64908;BME280;51412;52.236;5.188;2022-09-03T04:03:58;101098.09;;;18.18;49.12
64908;BME280;51412;52.236;5.188;2022-09-03T04:06:25;101100.88;;;18.14;49.27
64908;BME280;51412;52.236;5.188;2022-09-03T04:08:52;101095.16;;;18.09;50.71
64908;BME280;51412;52.236;5.188;2022-09-03T04:11:20;101098.78;;;17.98;51.52
64908;BME280;51412;52.236;5.188;2022-09-03T04:13:48;101101.94;;;17.90;51.29
64908;BME280;51412;52.236;5.188;2022-09-03T04:16:17;101100.50;;;17.85;50.56
64908;BME280;51412;52.236;5.188;2022-09-03T04:18:45;101102.81;;;17.83;50.32
64908;BME280;51412;52.236;5.188;2022-09-03T04:21:15;101092.88;;;17.80;50.51
64908;BME280;51412;52.236;5.188;2022-09-03T04:23:43;101089.78;;;17.81;51.43
64908;BME280;51412;52.236;5.188;2022-09-03T04:26:11;101092.88;;;17.80;51.66
64908;BME280;51412;52.236;5.188;2022-09-03T04:28:38;101084.44;;;17.78;51.06
64908;BME280;51412;52.236;5.188;2022-09-03T04:31:07;101087.53;;;17.76;51.04
64908;BME280;51412;52.236;5.188;2022-09-03T04:33:35;101096.00;;;17.75;51.71
64908;BME280;51412;52.236;5.188;2022-09-03T04:36:06;101078.47;;;17.66;52.07
64908;BME280;51412;52.236;5.188;2022-09-03T04:38:33;101086.19;;;17.64;52.38
64908;BME280;51412;52.236;5.188;2022-09-03T04:41:00;101083.13;;;17.62;52.53
64908;BME280;51412;52.236;5.188;2022-09-03T04:43:27;101083.94;;;17.59;52.60
64908;BME280;51412;52.236;5.188;2022-09-03T04:45:57;101076.38;;;17.50;52.35
64908;BME280;51412;52.236;5.188;2022-09-03T04:48:24;101082.56;;;17.47;52.47
64908;BME280;51412;52.236;5.188;2022-09-03T04:50:51;101088.69;;;17.48;52.08
64908;BME280;51412;52.236;5.188;2022-09-03T04:53:20;101090.66;;;17.44;52.06
64908;BME280;51412;52.236;5.188;2022-09-03T04:55:46;101084.88;;;17.45;53.05
64908;BME280;51412;52.236;5.188;2022-09-03T04:58:13;101089.16;;;17.43;52.81
64908;BME280;51412;52.236;5.188;2022-09-03T05:00:40;101086.47;;;17.43;52.23
64908;BME280;51412;52.236;5.188;2022-09-03T05:03:06;101082.59;;;17.44;53.43
64908;BME280;51412;52.236;5.188;2022-09-03T05:05:33;101054.13;;;17.19;53.46
64908;BME280;51412;52.236;5.188;2022-09-03T05:07:59;101091.19;;;17.31;52.96
64908;BME280;51412;52.236;5.188;2022-09-03T05:10:28;101085.50;;;17.26;54.66
64908;BME280;51412;52.236;5.188;2022-09-03T05:12:58;101085.91;;;17.24;54.38
64908;BME280;51412;52.236;5.188;2022-09-03T05:15:25;101088.59;;;17.24;53.84
64908;BME280;51412;52.236;5.188;2022-09-03T05:17:55;101085.16;;;17.24;54.82
64908;BME280;51412;52.236;5.188;2022-09-03T05:20:22;101069.13;;;17.16;54.08
64908;BME280;51412;52.236;5.188;2022-09-03T05:22:49;101087.44;;;17.25;54.23
64908;BME280;51412;52.236;5.188;2022-09-03T05:25:16;101089.41;;;17.21;53.57
64908;BME280;51412;52.236;5.188;2022-09-03T05:27:43;101087.53;;;17.18;53.91
64908;BME280;51412;52.236;5.188;2022-09-03T05:30:10;101086.78;;;17.17;54.14
64908;BME280;51412;52.236;5.188;2022-09-03T05:32:37;101087.88;;;17.20;53.49
64908;BME280;51412;52.236;5.188;2022-09-03T05:35:04;101089.03;;;17.19;52.96
64908;BME280;51412;52.236;5.188;2022-09-03T05:37:31;101081.75;;;17.20;53.47
64908;BME280;51412;52.236;5.188;2022-09-03T05:39:58;101074.19;;;17.11;53.83
64908;BME280;51412;52.236;5.188;2022-09-03T05:42:24;101081.00;;;17.19;53.05
64908;BME280;51412;52.236;5.188;2022-09-03T05:44:54;101086.72;;;17.21;52.82
64908;BME280;51412;52.236;5.188;2022-09-03T05:47:21;101088.22;;;17.22;53.53
64908;BME280;51412;52.236;5.188;2022-09-03T05:49:48;101092.09;;;17.21;53.84
64908;BME280;51412;52.236;5.188;2022-09-03T05:52:14;101086.34;;;17.19;53.93
64908;BME280;51412;52.236;5.188;2022-09-03T05:54:41;101082.16;;;17.18;53.88
64908;BME280;51412;52.236;5.188;2022-09-03T05:57:08;101083.69;;;17.19;54.25
64908;BME280;51412;52.236;5.188;2022-09-03T05:59:34;101073.69;;;17.20;53.33
64908;BME280;51412;52.236;5.188;2022-09-03T06:02:02;101079.47;;;17.18;53.74
64908;BME280;51412;52.236;5.188;2022-09-03T06:04:29;101092.81;;;17.25;53.87
64908;BME280;51412;52.236;5.188;2022-09-03T06:06:55;101092.00;;;17.28;53.81
64908;BME280;51412;52.236;5.188;2022-09-03T06:09:22;101086.66;;;17.25;54.25
64908;BME280;51412;52.236;5.188;2022-09-03T06:11:48;101091.91;;;17.36;54.16
64908;BME280;51412;52.236;5.188;2022-09-03T06:14:16;101095.69;;;17.42;53.94
64908;BME280;51412;52.236;5.188;2022-09-03T06:16:44;101087.97;;;17.44;53.28
64908;BME280;51412;52.236;5.188;2022-09-03T06:19:14;101088.66;;;17.51;53.88
64908;BME280;51412;52.236;5.188;2022-09-03T06:21:43;101091.63;;;17.57;53.74
64908;BME280;51412;52.236;5.188;2022-09-03T06:24:11;101079.38;;;17.56;53.38
64908;BME280;51412;52.236;5.188;2022-09-03T06:26:38;101091.09;;;17.70;53.79
64908;BME280;51412;52.236;5.188;2022-09-03T06:29:05;101092.97;;;17.73;52.86
64908;BME280;51412;52.236;5.188;2022-09-03T06:31:32;101091.75;;;17.77;52.73
64908;BME280;51412;52.236;5.188;2022-09-03T06:34:00;101088.63;;;17.82;52.48
64908;BME280;51412;52.236;5.188;2022-09-03T06:36:28;101086.69;;;17.83;52.79
64908;BME280;51412;52.236;5.188;2022-09-03T06:38:55;101095.44;;;17.87;53.39
64908;BME280;51412;52.236;5.188;2022-09-03T06:41:23;101095.72;;;17.96;52.84
64908;BME280;51412;52.236;5.188;2022-09-03T06:43:52;101091.84;;;18.01;53.10
64908;BME280;51412;52.236;5.188;2022-09-03T06:46:21;101098.56;;;18.13;53.28
64908;BME280;51412;52.236;5.188;2022-09-03T06:48:48;101102.66;;;18.21;52.62
64908;BME280;51412;52.236;5.188;2022-09-03T06:51:17;101096.88;;;18.23;52.72
64908;BME280;51412;52.236;5.188;2022-09-03T06:53:47;101096.06;;;18.26;51.99
64908;BME280;51412;52.236;5.188;2022-09-03T06:56:15;101092.50;;;18.32;52.70
64908;BME280;51412;52.236;5.188;2022-09-03T06:58:44;101098.22;;;18.34;52.89
64908;BME280;51412;52.236;5.188;2022-09-03T07:01:12;101094.31;;;18.39;52.57
64908;BME280;51412;52.236;5.188;2022-09-03T07:03:41;101110.28;;;18.50;52.27
64908;BME280;51412;52.236;5.188;2022-09-03T07:06:09;101104.75;;;18.57;52.13
64908;BME280;51412;52.236;5.188;2022-09-03T07:08:36;101099.25;;;18.64;51.65
64908;BME280;51412;52.236;5.188;2022-09-03T07:11:06;101101.84;;;18.72;51.96
64908;BME280;51412;52.236;5.188;2022-09-03T07:13:34;101102.84;;;18.78;51.99
64908;BME280;51412;52.236;5.188;2022-09-03T07:16:03;101103.91;;;18.84;51.66
64908;BME280;51412;52.236;5.188;2022-09-03T07:18:30;101101.56;;;18.86;51.51
64908;BME280;51412;52.236;5.188;2022-09-03T07:20:57;101101.38;;;18.97;51.38
64908;BME280;51412;52.236;5.188;2022-09-03T07:23:24;101103.19;;;19.04;51.27
64908;BME280;51412;52.236;5.188;2022-09-03T07:25:52;101103.38;;;19.13;51.28
64908;BME280;51412;52.236;5.188;2022-09-03T07:28:21;101095.25;;;19.16;50.33
64908;BME280;51412;52.236;5.188;2022-09-03T07:30:49;101105.88;;;19.24;49.79
64908;BME280;51412;52.236;5.188;2022-09-03T07:33:15;101101.75;;;19.19;49.29
64908;BME280;51412;52.236;5.188;2022-09-03T07:35:42;101097.88;;;19.20;49.52
64908;BME280;51412;52.236;5.188;2022-09-03T07:38:08;101101.94;;;19.28;49.94
64908;BME280;51412;52.236;5.188;2022-09-03T07:40:35;101097.25;;;19.32;49.68
64908;BME280;51412;52.236;5.188;2022-09-03T07:43:04;101100.13;;;19.42;49.88
64908;BME280;51412;52.236;5.188;2022-09-03T07:45:32;101095.25;;;19.53;49.69
64908;BME280;51412;52.236;5.188;2022-09-03T07:47:58;101114.09;;;19.73;48.97
64908;BME280;51412;52.236;5.188;2022-09-03T07:50:25;101105.50;;;19.78;48.92
64908;BME280;51412;52.236;5.188;2022-09-03T07:52:55;101105.69;;;19.88;48.58
64908;BME280;51412;52.236;5.188;2022-09-03T07:55:21;101111.13;;;20.04;48.29
64908;BME280;51412;52.236;5.188;2022-09-03T07:57:48;101104.19;;;20.19;47.76
64908;BME280;51412;52.236;5.188;2022-09-03T08:00:15;101101.03;;;20.38;46.99
64908;BME280;51412;52.236;5.188;2022-09-03T08:02:43;101106.84;;;20.52;46.94
64908;BME280;51412;52.236;5.188;2022-09-03T08:05:10;101102.69;;;20.64;46.26
64908;BME280;51412;52.236;5.188;2022-09-03T08:07:36;101099.31;;;20.77;45.73
64908;BME280;51412;52.236;5.188;2022-09-03T08:10:03;101109.22;;;20.96;45.84
64908;BME280;51412;52.236;5.188;2022-09-03T08:12:30;101107.75;;;21.08;45.23
64908;BME280;51412;52.236;5.188;2022-09-03T08:14:57;101107.44;;;21.32;44.71
64908;BME280;51412;52.236;5.188;2022-09-03T08:17:24;101113.97;;;21.47;44.06
64908;BME280;51412;52.236;5.188;2022-09-03T08:19:51;101118.66;;;21.60;43.52
64908;BME280;51412;52.236;5.188;2022-09-03T08:22:19;101120.28;;;21.57;43.40
64908;BME280;51412;52.236;5.188;2022-09-03T08:24:46;101119.19;;;21.67;43.30
64908;BME280;51412;52.236;5.188;2022-09-03T08:27:14;101117.88;;;21.85;42.90
64908;BME280;51412;52.236;5.188;2022-09-03T08:29:41;101120.69;;;22.07;42.98
64908;BME280;51412;52.236;5.188;2022-09-03T08:32:11;101118.91;;;22.26;42.21
64908;BME280;51412;52.236;5.188;2022-09-03T08:34:37;101116.75;;;22.34;41.66
64908;BME280;51412;52.236;5.188;2022-09-03T08:37:05;101127.66;;;22.43;41.38
64908;BME280;51412;52.236;5.188;2022-09-03T08:39:34;101123.88;;;22.41;41.02
64908;BME280;51412;52.236;5.188;2022-09-03T08:42:15;101107.06;;;22.46;41.67
64908;BME280;51412;52.236;5.188;2022-09-03T08:44:45;101122.03;;;22.73;41.04
64908;BME280;51412;52.236;5.188;2022-09-03T08:47:16;101123.94;;;22.85;40.87
64908;BME280;51412;52.236;5.188;2022-09-03T08:49:49;101119.47;;;22.91;40.27
64908;BME280;51412;52.236;5.188;2022-09-03T08:52:25;101123.69;;;22.92;39.96
64908;BME280;51412;52.236;5.188;2022-09-03T08:54:58;101119.09;;;23.02;40.01
64908;BME280;51412;52.236;5.188;2022-09-03T08:57:28;101116.63;;;23.17;40.04
64908;BME280;51412;52.236;5.188;2022-09-03T08:59:57;101129.28;;;23.42;39.95
64908;BME280;51412;52.236;5.188;2022-09-03T09:02:32;101121.97;;;23.61;39.33
64908;BME280;51412;52.236;5.188;2022-09-03T09:05:04;101116.38;;;23.65;39.23
64908;BME280;51412;52.236;5.188;2022-09-03T09:07:40;101121.34;;;23.57;38.66
64908;BME280;51412;52.236;5.188;2022-09-03T09:10:13;101115.25;;;23.84;38.85
64908;BME280;51412;52.236;5.188;2022-09-03T09:12:47;101117.28;;;24.02;38.53
64908;BME280;51412;52.236;5.188;2022-09-03T09:15:27;101114.88;;;24.14;37.98
64908;BME280;51412;52.236;5.188;2022-09-03T09:18:05;101121.72;;;24.37;38.01
64908;BME280;51412;52.236;5.188;2022-09-03T09:20:40;101122.94;;;24.64;38.46
64908;BME280;51412;52.236;5.188;2022-09-03T09:23:13;101126.38;;;24.92;37.28
64908;BME280;51412;52.236;5.188;2022-09-03T09:25:46;101113.66;;;25.08;37.21
64908;BME280;51412;52.236;5.188;2022-09-03T09:28:16;101122.06;;;25.28;37.16
64908;BME280;51412;52.236;5.188;2022-09-03T09:30:44;101125.63;;;25.53;36.83
64908;BME280;51412;52.236;5.188;2022-09-03T09:33:11;101113.59;;;25.69;36.77
64908;BME280;51412;52.236;5.188;2022-09-03T09:35:38;101116.13;;;25.82;36.17
64908;BME280;51412;52.236;5.188;2022-09-03T09:38:06;101114.78;;;26.01;36.19
64908;BME280;51412;52.236;5.188;2022-09-03T09:40:36;101114.94;;;26.07;35.47
64908;BME280;51412;52.236;5.188;2022-09-03T09:43:08;101118.06;;;26.15;34.64
64908;BME280;51412;52.236;5.188;2022-09-03T09:45:35;101111.22;;;25.95;34.74
64908;BME280;51412;52.236;5.188;2022-09-03T09:48:08;101114.31;;;25.79;35.31
64908;BME280;51412;52.236;5.188;2022-09-03T09:50:36;101111.78;;;25.75;34.93
64908;BME280;51412;52.236;5.188;2022-09-03T09:53:03;101110.72;;;25.72;35.21
64908;BME280;51412;52.236;5.188;2022-09-03T09:55:52;101103.56;;;26.09;35.21
64908;BME280;51412;52.236;5.188;2022-09-03T09:58:20;101112.19;;;26.31;34.54
64908;BME280;51412;52.236;5.188;2022-09-03T10:01:02;101108.94;;;26.57;34.40
64908;BME280;51412;52.236;5.188;2022-09-03T10:03:32;101119.03;;;26.66;34.24
64908;BME280;51412;52.236;5.188;2022-09-03T10:06:05;101107.66;;;26.67;33.54
64908;BME280;51412;52.236;5.188;2022-09-03T10:08:46;101108.97;;;26.72;33.17
64908;BME280;51412;52.236;5.188;2022-09-03T10:11:16;101104.53;;;26.60;33.20
64908;BME280;51412;52.236;5.188;2022-09-03T10:13:44;101105.09;;;26.64;33.59
64908;BME280;51412;52.236;5.188;2022-09-03T10:16:19;101105.44;;;26.81;33.21
64908;BME280;51412;52.236;5.188;2022-09-03T10:18:52;101106.34;;;26.78;32.77
64908;BME280;51412;52.236;5.188;2022-09-03T10:21:26;101100.63;;;27.05;33.56
64908;BME280;51412;52.236;5.188;2022-09-03T10:23:58;101099.53;;;27.33;32.99
64908;BME280;51412;52.236;5.188;2022-09-03T10:26:31;101103.66;;;27.58;32.79
64908;BME280;51412;52.236;5.188;2022-09-03T10:28:59;101099.00;;;27.64;31.70
64908;BME280;51412;52.236;5.188;2022-09-03T10:31:47;101095.06;;;27.65;32.45
64908;BME280;51412;52.236;5.188;2022-09-03T10:34:21;101094.94;;;27.75;32.43
64908;BME280;51412;52.236;5.188;2022-09-03T10:36:57;101096.56;;;27.87;32.04
64908;BME280;51412;52.236;5.188;2022-09-03T10:39:34;101086.81;;;28.01;32.21
64908;BME280;51412;52.236;5.188;2022-09-03T10:42:17;101085.81;;;28.19;31.68
64908;BME280;51412;52.236;5.188;2022-09-03T10:44:58;101075.13;;;28.21;31.35
64908;BME280;51412;52.236;5.188;2022-09-03T10:47:37;101078.00;;;28.32;30.56
64908;BME280;51412;52.236;5.188;2022-09-03T10:50:10;101083.81;;;28.19;30.51
64908;BME280;51412;52.236;5.188;2022-09-03T10:52:54;101077.16;;;28.26;30.38
64908;BME280;51412;52.236;5.188;2022-09-03T10:55:32;101073.59;;;28.40;30.59
64908;BME280;51412;52.236;5.188;2022-09-03T10:58:15;101068.50;;;28.54;30.63
64908;BME280;51412;52.236;5.188;2022-09-03T11:00:51;101072.38;;;28.68;29.64
64908;BME280;51412;52.236;5.188;2022-09-03T11:03:31;101070.13;;;28.66;30.39
64908;BME280;51412;52.236;5.188;2022-09-03T11:06:09;101079.88;;;28.73;30.49
64908;BME280;51412;52.236;5.188;2022-09-03T11:08:40;101079.34;;;28.69;30.18
64908;BME280;51412;52.236;5.188;2022-09-03T11:11:12;101076.34;;;28.67;30.34
64908;BME280;51412;52.236;5.188;2022-09-03T11:13:43;101084.38;;;28.76;30.22
64908;BME280;51412;52.236;5.188;2022-09-03T11:16:13;101076.44;;;28.78;30.41
64908;BME280;51412;52.236;5.188;2022-09-03T11:18:47;101071.44;;;28.77;29.79
64908;BME280;51412;52.236;5.188;2022-09-03T11:21:17;101068.63;;;28.65;29.66
64908;BME280;51412;52.236;5.188;2022-09-03T11:23:48;101082.19;;;28.54;30.41
64908;BME280;51412;52.236;5.188;2022-09-03T11:26:18;101073.44;;;28.50;29.89
64908;BME280;51412;52.236;5.188;2022-09-03T11:28:52;101071.84;;;28.64;30.13
64908;BME280;51412;52.236;5.188;2022-09-03T11:31:24;101069.69;;;28.73;29.55
64908;BME280;51412;52.236;5.188;2022-09-03T11:33:59;101074.72;;;28.81;29.61
64908;BME280;51412;52.236;5.188;2022-09-03T11:36:29;101067.94;;;28.70;29.79
64908;BME280;51412;52.236;5.188;2022-09-03T11:38:56;101070.22;;;28.78;30.06
64908;BME280;51412;52.236;5.188;2022-09-03T11:41:24;101065.56;;;28.84;29.39
64908;BME280;51412;52.236;5.188;2022-09-03T11:43:54;101059.97;;;28.72;29.46
64908;BME280;51412;52.236;5.188;2022-09-03T11:46:29;101062.19;;;28.68;29.64
64908;BME280;51412;52.236;5.188;2022-09-03T11:49:07;101057.69;;;28.65;29.75
64908;BME280;51412;52.236;5.188;2022-09-03T11:51:35;101048.88;;;28.55;29.63
64908;BME280;51412;52.236;5.188;2022-09-03T11:54:05;101054.22;;;28.65;29.39
64908;BME280;51412;52.236;5.188;2022-09-03T11:56:33;101055.91;;;28.62;30.38
64908;BME280;51412;52.236;5.188;2022-09-03T11:59:15;101046.78;;;28.71;29.95
64908;BME280;51412;52.236;5.188;2022-09-03T12:01:47;101056.72;;;29.00;30.12
64908;BME280;51412;52.236;5.188;2022-09-03T12:04:18;101057.13;;;29.25;29.71
64908;BME280;51412;52.236;5.188;2022-09-03T12:06:56;101053.69;;;29.30;28.95
64908;BME280;51412;52.236;5.188;2022-09-03T12:09:48;101053.28;;;29.43;29.45
64908;BME280;51412;52.236;5.188;2022-09-03T12:12:31;101062.31;;;29.61;29.03
64908;BME280;51412;52.236;5.188;2022-09-03T12:15:09;101065.78;;;29.61;28.67
64908;BME280;51412;52.236;5.188;2022-09-03T12:17:44;101061.06;;;29.67;29.13
64908;BME280;51412;52.236;5.188;2022-09-03T12:20:35;101056.88;;;29.72;28.91
64908;BME280;51412;52.236;5.188;2022-09-03T12:23:02;101059.59;;;29.66;28.40
64908;BME280;51412;52.236;5.188;2022-09-03T12:25:28;101055.34;;;29.65;29.39
64908;BME280;51412;52.236;5.188;2022-09-03T12:27:55;101044.13;;;29.63;28.51
64908;BME280;51412;52.236;5.188;2022-09-03T12:30:26;101039.41;;;29.64;29.30
64908;BME280;51412;52.236;5.188;2022-09-03T12:33:02;101059.91;;;29.80;28.99
64908;BME280;51412;52.236;5.188;2022-09-03T12:35:29;101052.25;;;29.95;29.41
64908;BME280;51412;52.236;5.188;2022-09-03T12:37:56;101053.53;;;30.05;28.70
64908;BME280;51412;52.236;5.188;2022-09-03T12:40:24;101052.28;;;30.06;28.18
64908;BME280;51412;52.236;5.188;2022-09-03T12:42:52;101046.03;;;29.95;27.98
64908;BME280;51412;52.236;5.188;2022-09-03T12:45:20;101058.53;;;30.13;27.55
64908;BME280;51412;52.236;5.188;2022-09-03T12:47:49;101060.25;;;30.16;27.80
64908;BME280;51412;52.236;5.188;2022-09-03T12:50:19;101067.97;;;30.00;27.92
64908;BME280;51412;52.236;5.188;2022-09-03T12:52:48;101067.13;;;29.77;28.04
64908;BME280;51412;52.236;5.188;2022-09-03T12:55:25;101051.59;;;29.63;27.75
64908;BME280;51412;52.236;5.188;2022-09-03T12:57:58;101060.13;;;29.70;28.66
64908;BME280;51412;52.236;5.188;2022-09-03T13:00:28;101050.66;;;29.71;28.01
64908;BME280;51412;52.236;5.188;2022-09-03T13:03:00;101061.13;;;29.79;27.55
64908;BME280;51412;52.236;5.188;2022-09-03T13:05:31;101051.41;;;29.78;27.81
64908;BME280;51412;52.236;5.188;2022-09-03T13:08:00;101057.72;;;29.89;27.56
64908;BME280;51412;52.236;5.188;2022-09-03T13:10:31;101049.75;;;29.92;27.39
64908;BME280;51412;52.236;5.188;2022-09-03T13:13:01;101057.50;;;29.93;26.94